Time;durP1;ratioP1;P1;durP2;ratioP2;P2;SDS_P1;SDS_P2;PMS_P1;PMS_P2;Temp;Humidity;BMP_temperature;BMP_pressure;BME280_temperature;BME280_humidity;BME280_pressure;Samples;Min_cycle;Max_cycle;Signal;HPM_P1;HPM_P2
2024/02/08 00:01:02;;;;;;;1.23;1.10;;;;;;;9.06;79.42;95471.81;4994299;28;20133;-79
2024/02/08 00:03:30;;;;;;;3.17;1.30;;;;;;;9.08;79.60;95464.59;4985763;28;20050;-79
2024/02/08 00:05:59;;;;;;;1.27;1.13;;;;;;;9.07;79.66;95472.59;4988646;28;20130;-79
2024/02/08 00:08:26;;;;;;;2.40;0.90;;;;;;;9.05;79.39;95478.03;4994144;28;20129;-79
2024/02/08 00:10:54;;;;;;;2.10;1.30;;;;;;;9.05;79.70;95469.41;4993839;28;20571;-79
2024/02/08 00:13:23;;;;;;;1.92;1.00;;;;;;;9.06;79.87;95476.22;4993722;28;20435;-79
2024/02/08 00:15:50;;;;;;;2.35;1.30;;;;;;;9.05;79.88;95475.44;4993708;28;20052;-79
2024/02/08 00:18:18;;;;;;;2.47;1.27;;;;;;;9.04;79.60;95468.59;4993836;28;20046;-79
2024/02/08 00:20:46;;;;;;;2.03;1.13;;;;;;;9.05;79.95;95470.22;4993686;28;20051;-79
2024/02/08 00:23:15;;;;;;;1.13;0.85;;;;;;;9.07;79.68;95470.00;4993842;28;20426;-79
2024/02/08 00:25:45;;;;;;;2.22;1.25;;;;;;;9.08;79.94;95467.22;4993548;28;20051;-79
2024/02/08 00:28:13;;;;;;;2.58;1.00;;;;;;;9.08;80.04;95464.59;4993849;28;20054;-79
2024/02/08 00:30:41;;;;;;;2.55;1.13;;;;;;;9.10;80.07;95461.81;4993748;28;20041;-78
2024/02/08 00:33:09;;;;;;;4.22;1.08;;;;;;;9.11;79.64;95467.81;4993672;28;20502;-79
2024/02/08 00:35:36;;;;;;;1.85;0.88;;;;;;;9.11;79.92;95462.59;4993653;28;20042;-78
2024/02/08 00:38:04;;;;;;;2.20;1.02;;;;;;;9.12;79.79;95461.59;4993963;28;20046;-78
2024/02/08 00:40:33;;;;;;;1.58;0.95;;;;;;;9.12;79.71;95459.00;4993758;28;20120;-78
2024/02/08 00:43:05;;;;;;;1.38;0.90;;;;;;;9.14;79.72;95457.00;4993343;28;20057;-78
2024/02/08 00:45:33;;;;;;;1.08;0.70;;;;;;;9.14;79.46;95457.00;4985743;28;20050;-79
2024/02/08 00:48:01;;;;;;;1.65;0.98;;;;;;;9.15;79.68;95453.41;4993627;28;20126;-79
2024/02/08 00:50:28;;;;;;;1.48;0.70;;;;;;;9.18;79.66;95453.00;4993308;28;20038;-79
2024/02/08 00:52:58;;;;;;;0.60;0.55;;;;;;;9.17;79.11;95449.59;4993392;28;20129;-79
2024/02/08 00:55:26;;;;;;;0.50;0.50;;;;;;;9.16;79.08;95455.81;4992995;28;20050;-79
2024/02/08 00:57:55;;;;;;;1.15;0.70;;;;;;;9.16;79.40;95460.19;4993099;28;20038;-78
2024/02/08 01:00:22;;;;;;;2.75;0.60;;;;;;;9.16;79.24;95450.63;4993482;28;20061;-79
2024/02/08 01:02:50;;;;;;;0.65;0.40;;;;;;;9.17;79.46;95451.41;5006337;28;20050;-79
2024/02/08 01:05:20;;;;;;;0.98;0.88;;;;;;;9.19;79.70;95439.00;5003827;28;20061;-79
2024/02/08 01:07:48;;;;;;;2.40;0.60;;;;;;;9.22;79.96;95449.00;5010632;28;20558;-80
2024/02/08 01:10:16;;;;;;;0.50;0.43;;;;;;;9.21;79.70;95448.19;4997994;28;20447;-78
2024/02/08 01:12:44;;;;;;;0.85;0.55;;;;;;;9.23;79.35;95442.81;4993497;28;20077;-79
2024/02/08 01:15:14;;;;;;;1.75;0.65;;;;;;;9.25;79.86;95441.59;4992861;28;20077;-79
2024/02/08 01:17:42;;;;;;;1.85;0.40;;;;;;;9.26;79.71;95443.19;4992841;28;20042;-77
2024/02/08 01:20:11;;;;;;;0.32;0.32;;;;;;;9.28;79.35;95445.59;4992669;28;20053;-78
2024/02/08 01:22:39;;;;;;;0.65;0.50;;;;;;;9.28;79.43;95445.59;4992870;28;20491;-78
2024/02/08 01:25:07;;;;;;;0.68;0.60;;;;;;;9.30;79.33;95446.19;4992327;28;20462;-78
2024/02/08 01:27:34;;;;;;;3.15;0.60;;;;;;;9.29;79.19;95439.38;4985355;28;20441;-78
2024/02/08 01:30:07;;;;;;;0.68;0.50;;;;;;;9.29;79.62;95436.78;4993016;28;20154;-79
2024/02/08 01:32:36;;;;;;;0.50;0.45;;;;;;;9.29;79.07;95434.16;4984462;28;20042;-79
2024/02/08 01:35:06;;;;;;;0.88;0.40;;;;;;;9.27;79.01;95441.38;4992587;28;20046;-80
2024/02/08 01:37:38;;;;;;;1.40;0.30;;;;;;;9.27;79.36;95438.78;4984841;28;20050;-79
2024/02/08 01:40:12;;;;;;;0.35;0.35;;;;;;;9.27;79.15;95441.38;4993601;28;20065;-79
2024/02/08 01:42:40;;;;;;;1.05;0.22;;;;;;;9.29;79.45;95431.56;4985843;28;20054;-78
2024/02/08 01:45:30;;;;;;;0.20;0.20;;;;;;;9.30;79.29;95432.38;4992482;28;20498;-78
2024/02/08 01:48:01;;;;;;;0.63;0.38;;;;;;;9.30;79.23;95433.19;4992506;28;20051;-79
2024/02/08 01:50:30;;;;;;;0.15;0.15;;;;;;;9.30;79.28;95425.38;4993654;28;20050;-79
2024/02/08 01:53:00;;;;;;;0.47;0.20;;;;;;;9.32;79.37;95433.00;4992604;28;20125;-79
2024/02/08 01:55:33;;;;;;;0.32;0.28;;;;;;;9.34;79.50;95425.78;5003071;28;20050;-77
2024/02/08 01:58:05;;;;;;;;;;;;;;;9.37;79.60;95436.56;4994492;28;20125;-79
2024/02/08 02:00:36;;;;;;;0.50;0.50;;;;;;;9.37;78.99;95425.38;4992136;28;19928;-79
2024/02/08 02:03:09;;;;;;;0.47;0.30;;;;;;;9.38;79.13;95419.16;4996725;28;20108;-78
2024/02/08 02:05:41;;;;;;;;;;;;;;;9.39;79.39;95429.34;4981135;28;20058;-79
2024/02/08 02:08:10;;;;;;;1.10;0.30;;;;;;;9.38;79.06;95419.97;4992465;28;19921;-78
2024/02/08 02:10:38;;;;;;;0.20;0.20;;;;;;;9.40;79.23;95424.94;4992576;28;20138;-78
2024/02/08 02:13:09;;;;;;;0.30;0.10;;;;;;;9.41;79.50;95414.34;4992768;28;20478;-78
2024/02/08 02:15:37;;;;;;;0.40;0.20;;;;;;;9.41;79.27;95421.34;4992082;28;20042;-79
2024/02/08 02:18:08;;;;;;;0.75;0.20;;;;;;;9.43;79.22;95414.94;4991604;28;20050;-78
2024/02/08 02:20:36;;;;;;;0.93;0.30;;;;;;;9.44;79.21;95416.53;4983453;28;20047;-78
2024/02/08 02:23:09;;;;;;;0.43;0.22;;;;;;;9.45;78.85;95425.16;4991309;28;20129;-79
2024/02/08 02:25:39;;;;;;;0.15;0.15;;;;;;;9.45;79.08;95407.72;4984043;28;20042;-78
2024/02/08 02:28:08;;;;;;;0.73;0.20;;;;;;;9.46;79.09;95406.72;4991819;28;20050;-79
2024/02/08 02:30:36;;;;;;;0.43;0.20;;;;;;;9.47;79.06;95405.72;4991219;28;20427;-79
2024/02/08 02:33:04;;;;;;;1.25;0.40;;;;;;;9.48;79.52;95401.31;4991426;28;20050;-78
2024/02/08 02:35:32;;;;;;;0.20;0.20;;;;;;;9.49;79.18;95401.13;4991805;28;20050;-78
2024/02/08 02:38:02;;;;;;;0.30;0.30;;;;;;;9.49;79.20;95403.72;4991986;28;20500;-78
2024/02/08 02:40:33;;;;;;;0.10;0.10;;;;;;;9.49;79.25;95403.72;4988031;28;20050;-77
2024/02/08 02:43:09;;;;;;;0.20;0.20;;;;;;;9.51;79.27;95405.31;4989455;28;20101;-79
2024/02/08 02:45:37;;;;;;;0.20;0.20;;;;;;;9.49;79.12;95403.72;4985990;28;20042;-78
2024/02/08 02:48:05;;;;;;;0.68;0.30;;;;;;;9.51;78.93;95395.72;4998918;28;20415;-79
2024/02/08 02:50:33;;;;;;;0.32;0.20;;;;;;;9.52;78.93;95392.09;4998425;28;20108;-79
2024/02/08 02:53:01;;;;;;;0.10;0.10;;;;;;;9.52;78.65;95392.09;4992212;28;20476;-79
2024/02/08 02:55:28;;;;;;;0.22;0.10;;;;;;;9.54;78.84;95389.28;4995250;28;20058;-79
2024/02/08 02:57:57;;;;;;;0.38;0.20;;;;;;;9.54;78.98;95386.69;4995589;28;20054;-78
2024/02/08 03:00:33;;;;;;;1.17;0.10;;;;;;;9.54;78.89;95378.88;4995538;28;20051;-78
2024/02/08 03:03:06;;;;;;;0.10;0.10;;;;;;;9.56;78.94;95379.47;4995855;28;20046;-78
2024/02/08 03:05:35;;;;;;;0.25;0.25;;;;;;;9.56;78.83;95382.88;4995106;28;20077;-79
2024/02/08 03:08:05;;;;;;;0.20;0.20;;;;;;;9.58;78.54;95382.69;4994101;28;20138;-79
2024/02/08 03:10:33;;;;;;;0.43;0.17;;;;;;;9.58;78.66;95380.06;4993402;28;20468;-79
2024/02/08 03:13:02;;;;;;;0.35;0.20;;;;;;;9.61;78.88;95384.88;4993342;28;20057;-79
2024/02/08 03:15:30;;;;;;;0.10;0.10;;;;;;;9.63;78.65;95382.84;4993085;28;20061;-79
2024/02/08 03:17:58;;;;;;;0.65;0.10;;;;;;;9.62;78.37;95382.06;4993387;28;20049;-78
2024/02/08 03:20:29;;;;;;;0.10;0.10;;;;;;;9.63;78.32;95382.84;4993433;28;20527;-79
2024/02/08 03:22:58;;;;;;;1.02;0.20;;;;;;;9.63;78.34;95377.66;4995138;28;20049;-78
2024/02/08 03:25:26;;;;;;;0.17;0.17;;;;;;;9.63;78.21;95377.66;4994495;28;20046;-79
2024/02/08 03:27:54;;;;;;;0.00;0.00;;;;;;;9.62;78.13;95376.84;4995034;28;20053;-79
2024/02/08 03:30:23;;;;;;;0.75;0.17;;;;;;;9.64;78.42;95379.22;4995145;28;20112;-79
2024/02/08 03:32:52;;;;;;;0.60;0.30;;;;;;;9.66;78.56;95372.84;4994809;28;20046;-78
2024/02/08 03:35:25;;;;;;;0.82;0.32;;;;;;;9.68;78.30;95372.59;4994794;28;20042;-79
2024/02/08 03:37:54;;;;;;;1.48;0.10;;;;;;;9.68;78.57;95376.00;4994942;28;20050;-79
2024/02/08 03:40:22;;;;;;;0.20;0.20;;;;;;;9.68;78.35;95380.44;4994894;28;20046;-79
2024/02/08 03:42:50;;;;;;;0.30;0.20;;;;;;;9.69;78.52;95382.03;4994794;28;20619;-79
2024/02/08 03:45:23;;;;;;;0.80;0.10;;;;;;;9.70;78.43;95375.81;4994393;28;20078;-79
2024/02/08 03:47:52;;;;;;;0.40;0.10;;;;;;;9.70;78.77;95373.22;4994946;28;20081;-79
2024/02/08 03:50:23;;;;;;;0.30;0.15;;;;;;;9.72;78.40;95373.00;4994432;28;20472;-79
2024/02/08 03:52:50;;;;;;;0.10;0.10;;;;;;;9.73;78.46;95382.41;4994412;28;20068;-79
2024/02/08 03:55:26;;;;;;;0.17;0.17;;;;;;;9.75;78.41;95369.97;4993411;28;20134;-78
2024/02/08 03:57:56;;;;;;;0.32;0.30;;;;;;;9.75;78.32;95373.41;4994611;28;20082;-79
2024/02/08 04:00:28;;;;;;;0.30;0.00;;;;;;;9.74;78.67;95382.22;4994275;28;20054;-78
2024/02/08 04:03:01;;;;;;;0.03;0.03;;;;;;;9.75;78.72;95389.03;4994388;28;20129;-78
2024/02/08 04:05:42;;;;;;;;;;;;;;;9.76;78.78;95377.59;4994835;28;20035;-77
2024/02/08 04:08:52;;;;;;;0.20;0.10;;;;;;;9.74;78.61;95384.03;5002474;28;19922;-79
2024/02/08 04:55:15;;;;;;;0.20;0.20;;;;;;;9.72;79.14;95386.81;4994826;28;20058;-79
2024/02/08 04:57:44;;;;;;;0.20;0.20;;;;;;;9.72;79.31;95365.19;4994479;28;20058;-79
2024/02/08 05:00:13;;;;;;;0.60;0.50;;;;;;;9.74;79.35;95363.97;4993524;28;20057;-78
2024/02/08 05:02:41;;;;;;;0.75;0.70;;;;;;;9.75;79.29;95365.59;4993642;28;20129;-79
2024/02/08 05:05:11;;;;;;;0.52;0.10;;;;;;;9.75;79.32;95359.56;4987648;28;20078;-79
2024/02/08 05:07:40;;;;;;;0.57;0.10;;;;;;;9.76;79.74;95376.81;4985561;28;20108;-78
2024/02/08 05:10:10;;;;;;;0.45;0.17;;;;;;;9.76;79.72;95375.00;4993232;28;20133;-79
2024/02/08 05:12:38;;;;;;;0.43;0.10;;;;;;;9.76;79.60;95367.19;4993217;28;20046;-79
2024/02/08 05:15:12;;;;;;;0.20;0.20;;;;;;;9.76;80.00;95375.00;4998134;28;20121;-79
2024/02/08 05:17:40;;;;;;;1.50;0.20;;;;;;;9.75;79.76;95363.00;5005829;28;20057;-79
2024/02/08 05:20:11;;;;;;;0.73;0.10;;;;;;;9.76;80.03;95369.78;4997533;28;20100;-78
2024/02/08 05:22:42;;;;;;;0.45;0.30;;;;;;;9.77;80.30;95373.19;4985876;28;20042;-78
2024/02/08 05:25:11;;;;;;;0.15;0.10;;;;;;;9.76;80.35;95367.19;4992729;28;20054;-79
2024/02/08 05:27:38;;;;;;;0.85;0.20;;;;;;;9.77;80.13;95368.75;4985681;28;20057;-79
2024/02/08 05:30:07;;;;;;;1.40;0.10;;;;;;;9.78;80.55;95372.97;4993458;28;20109;-79
2024/02/08 05:32:35;;;;;;;0.45;0.28;;;;;;;9.80;80.92;95372.78;4992897;28;20056;-79
2024/02/08 05:35:05;;;;;;;2.30;1.30;;;;;;;9.79;81.04;95374.56;4992435;28;20504;-78
2024/02/08 05:37:33;;;;;;;2.22;0.63;;;;;;;9.79;80.93;95371.97;4993010;28;20050;-79
2024/02/08 05:40:02;;;;;;;0.90;0.20;;;;;;;9.79;81.15;95366.75;4992944;28;20042;-79
2024/02/08 05:42:29;;;;;;;0.70;0.60;;;;;;;9.79;81.02;95356.34;4992504;28;20109;-79
2024/02/08 05:45:18;;;;;;;3.67;2.28;;;;;;;9.80;81.10;95357.94;4989637;28;20133;-79
2024/02/08 05:47:45;;;;;;;62.33;37.13;;;;;;;9.81;81.22;95361.34;4992566;28;20141;-78
2024/02/08 05:50:21;;;;;;;7.70;3.72;;;;;;;9.82;81.17;95365.56;4993440;28;20057;-79
2024/02/08 05:52:51;;;;;;;2.92;1.70;;;;;;;9.81;81.26;95362.13;4996214;28;20125;-79
2024/02/08 05:55:21;;;;;;;3.10;0.65;;;;;;;9.82;81.68;95363.75;4991168;28;20086;-78
2024/02/08 05:57:48;;;;;;;1.13;0.10;;;;;;;9.80;81.30;95357.94;4991389;28;20447;-78
2024/02/08 06:00:32;;;;;;;0.57;0.35;;;;;;;9.80;81.71;95363.16;4990639;28;20043;-79
2024/02/08 06:03:02;;;;;;;1.40;0.40;;;;;;;9.80;81.72;95359.75;4990571;28;20502;-79
2024/02/08 06:05:32;;;;;;;0.77;0.55;;;;;;;9.78;81.59;95362.56;4991124;28;20050;-79
2024/02/08 06:08:02;;;;;;;0.85;0.30;;;;;;;9.76;81.78;95356.75;4997557;28;20061;-77
2024/02/08 06:10:45;;;;;;;0.52;0.40;;;;;;;9.74;82.23;95358.78;5002507;28;20054;-79
2024/02/08 06:13:14;;;;;;;0.35;0.35;;;;;;;9.72;82.37;95366.00;4990186;28;20058;-78
2024/02/08 06:15:43;;;;;;;0.75;0.40;;;;;;;9.73;82.71;95367.59;4990567;28;20510;-80
2024/02/08 06:18:13;;;;;;;1.75;0.77;;;;;;;9.72;82.54;95363.38;4992326;28;20043;-80
2024/02/08 06:20:43;;;;;;;1.10;0.80;;;;;;;9.71;82.38;95356.59;4992307;28;20046;-80
2024/02/08 06:23:17;;;;;;;2.58;1.52;;;;;;;9.67;82.26;95358.00;4995903;28;20180;-77
2024/02/08 06:26:27;;;;;;;1.80;0.80;;;;;;;9.63;82.01;95364.63;4988604;28;20050;-79
2024/02/08 06:28:52;;;;;;;0.93;0.77;;;;;;;9.62;82.03;95368.22;4994433;28;20640;-81
2024/02/08 06:31:29;;;;;;;0.95;0.20;;;;;;;9.61;81.94;95364.03;4991051;28;20073;-82
2024/02/08 06:34:42;;;;;;;0.95;0.55;;;;;;;9.57;82.12;95368.03;4979415;28;20077;-80
2024/02/08 06:37:25;;;;;;;0.60;0.40;;;;;;;9.56;82.02;95366.47;4975158;28;20109;-80
2024/02/08 06:39:56;;;;;;;1.95;0.57;;;;;;;9.54;82.26;95374.47;4974763;28;20484;-80
2024/02/08 06:42:44;;;;;;;4.15;0.60;;;;;;;9.56;82.61;95374.28;4975038;28;20063;-80
2024/02/08 07:38:34;;;;;;;0.60;0.32;;;;;;;9.74;82.54;95381.41;5088976;28;20050;-81
2024/02/08 07:41:02;;;;;;;1.05;0.45;;;;;;;9.75;82.57;95375.19;5088871;28;20101;-81
2024/02/08 07:43:34;;;;;;;0.43;0.30;;;;;;;9.75;82.49;95377.78;5088390;28;20143;-80
2024/02/08 07:46:04;;;;;;;0.30;0.30;;;;;;;9.75;82.67;95388.22;5088413;28;20048;-80
2024/02/08 07:48:39;;;;;;;0.32;0.32;;;;;;;9.73;82.89;95388.44;5088689;28;20041;-80
2024/02/08 07:51:08;;;;;;;1.27;0.50;;;;;;;9.78;83.12;95385.22;5088855;28;20131;-81
2024/02/08 07:53:45;;;;;;;4.40;0.85;;;;;;;9.80;83.14;95383.19;5088410;28;20048;-80
2024/02/08 07:56:29;;;;;;;2.80;0.50;;;;;;;9.83;83.10;95388.00;5088601;28;20052;-81
2024/02/08 07:59:03;;;;;;;;;;;;;;;9.85;83.21;95380.75;5079865;28;20559;-81
2024/02/08 08:01:38;;;;;;;0.25;0.25;;;;;;;9.83;82.57;95378.34;5075144;28;19978;-81
2024/02/08 08:04:09;;;;;;;2.42;0.73;;;;;;;9.84;83.09;95373.97;5074761;28;20048;-81
2024/02/08 08:06:46;;;;;;;1.33;0.60;;;;;;;9.84;83.07;95364.34;5074737;28;20044;-81
2024/02/08 08:09:22;;;;;;;0.57;0.50;;;;;;;9.86;83.13;95383.19;5074871;28;20053;-81
2024/02/08 08:11:52;;;;;;;0.70;0.35;;;;;;;9.86;83.05;95385.78;5076538;28;20562;-80
2024/02/08 08:17:31;;;;;;;0.93;0.52;;;;;;;9.88;83.00;95373.34;5074635;28;20496;-80
2024/02/08 08:20:04;;;;;;;0.73;0.40;;;;;;;9.89;83.01;95369.72;5074879;28;20055;-81
2024/02/08 08:31:00;;;;;;;1.70;0.85;;;;;;;9.98;82.92;95356.47;5074052;28;19974;-80
2024/02/08 08:36:28;;;;;;;3.70;1.00;;;;;;;10.04;83.26;95353.03;5073120;28;20500;-81
2024/02/08 08:39:41;;;;;;;1.00;0.52;;;;;;;10.07;82.97;95357.81;5074181;28;20071;-81
2024/02/08 08:41:46;;;;;;;0.20;0.20;;;;;;;10.10;82.90;95357.38;5074035;28;20059;-81
2024/02/08 08:44:18;;;;;;;1.45;0.50;;;;;;;10.11;82.72;95354.59;5074104;28;20098;-81
2024/02/08 08:46:46;;;;;;;1.15;0.35;;;;;;;10.16;82.61;95350.56;5073967;28;20052;-81
2024/02/08 08:49:14;;;;;;;1.20;0.22;;;;;;;10.21;82.62;95350.72;5074250;28;20048;-81
2024/02/08 08:51:50;;;;;;;1.00;0.55;;;;;;;10.23;82.42;95343.50;5074029;28;20056;-81
2024/02/08 08:54:28;;;;;;;0.22;0.22;;;;;;;10.23;82.40;95346.91;5073943;28;20496;-81
2024/02/08 08:56:57;;;;;;;3.00;0.30;;;;;;;10.25;82.56;95357.09;5074953;28;20511;-81
2024/02/08 08:59:26;;;;;;;0.30;0.13;;;;;;;10.28;82.36;95354.91;5074958;28;20308;-81
2024/02/08 09:02:00;;;;;;;1.98;1.45;;;;;;;10.34;82.48;95355.09;5073915;28;20059;-81
2024/02/08 09:04:32;;;;;;;0.60;0.60;;;;;;;10.38;82.59;95357.06;5073850;28;20054;-80
2024/02/08 09:07:08;;;;;;;0.43;0.40;;;;;;;10.45;82.60;95364.81;5073865;28;20052;-81
2024/02/08 09:12:28;;;;;;;0.55;0.50;;;;;;;10.60;82.33;95357.50;5074394;28;20051;-81
2024/02/08 09:14:59;;;;;;;0.60;0.55;;;;;;;10.66;82.18;95350.66;5073489;28;20058;-80
2024/02/08 09:17:43;;;;;;;2.20;0.20;;;;;;;10.77;82.07;95347.34;5073781;28;20123;-81
2024/02/08 09:20:20;;;;;;;1.83;0.47;;;;;;;10.90;82.03;95347.22;5074083;28;20052;-79
2024/02/08 09:22:50;;;;;;;0.73;0.32;;;;;;;11.01;81.56;95343.13;5074659;28;20080;-80
2024/02/08 09:25:18;;;;;;;0.30;0.20;;;;;;;11.08;81.42;95349.06;5074404;28;20049;-79
2024/02/08 09:28:23;;;;;;;0.30;0.10;;;;;;;11.18;80.93;95347.81;5074349;28;20044;-79
2024/02/08 09:30:53;;;;;;;0.88;0.30;;;;;;;11.27;81.05;95347.28;5074149;28;20071;-79
2024/02/08 09:33:44;;;;;;;1.67;0.40;;;;;;;11.34;80.92;95342.00;5074174;28;20052;-79
2024/02/08 09:36:14;;;;;;;2.83;0.38;;;;;;;11.38;80.44;95337.94;5074199;28;20056;-79
2024/02/08 09:38:50;;;;;;;1.00;0.32;;;;;;;11.41;80.43;95331.47;5073695;28;20059;-79
2024/02/08 09:41:23;;;;;;;3.10;0.80;;;;;;;11.46;80.08;95339.47;5074347;28;20060;-81
2024/02/08 09:43:56;;;;;;;2.38;0.85;;;;;;;11.50;79.87;95336.22;5073198;28;20059;-80
2024/02/08 09:49:17;;;;;;;1.45;0.57;;;;;;;11.65;79.48;95329.81;5074133;28;20056;-79
2024/02/08 09:51:52;;;;;;;3.28;0.70;;;;;;;11.71;79.40;95340.16;5074031;28;20127;-78
2024/02/08 09:54:27;;;;;;;3.55;0.57;;;;;;;11.77;78.92;95330.66;5073732;28;20056;-79
2024/02/08 09:57:01;;;;;;;3.15;0.63;;;;;;;11.80;78.44;95327.59;5073814;28;20052;-81
2024/02/08 10:02:24;;;;;;;1.75;0.73;;;;;;;11.81;78.27;95337.06;5072552;28;20549;-81
2024/02/08 10:04:56;;;;;;;0.43;0.43;;;;;;;11.79;78.08;95344.31;5072808;28;20048;-80
2024/02/08 10:07:34;;;;;;;0.47;0.20;;;;;;;11.78;78.13;95353.16;5073106;28;20131;-81
2024/02/08 10:10:15;;;;;;;1.38;0.20;;;;;;;11.75;78.17;95353.59;5072658;28;20423;-81
2024/02/08 10:12:53;;;;;;;0.75;0.30;;;;;;;11.74;78.63;95352.00;5073089;28;20080;-81
2024/02/08 10:15:28;;;;;;;1.92;0.20;;;;;;;11.73;78.98;95358.25;5072507;28;20415;-81
2024/02/08 10:18:10;;;;;;;2.35;0.20;;;;;;;11.72;78.59;95348.81;5081671;28;20462;-80
2024/02/08 10:20:46;;;;;;;0.60;0.20;;;;;;;11.73;79.20;95342.56;5075218;28;20079;-81
2024/02/08 10:23:33;;;;;;;1.13;0.50;;;;;;;11.75;79.42;95351.00;5072892;28;20049;-81
2024/02/08 10:28:51;;;;;;;1.60;0.57;;;;;;;11.77;79.50;95342.94;5072565;28;20048;-78
2024/02/08 10:31:22;;;;;;;1.35;0.52;;;;;;;11.77;79.46;95346.34;5073984;28;20048;-81
2024/02/08 10:33:57;;;;;;;1.08;0.65;;;;;;;11.77;79.46;95335.91;5072193;28;20053;-81
2024/02/08 10:36:35;;;;;;;0.80;0.47;;;;;;;11.77;79.45;95329.88;5072551;28;20079;-81
2024/02/08 10:39:08;;;;;;;0.63;0.45;;;;;;;11.73;79.11;95327.69;5072191;28;20056;-80
2024/02/08 10:41:44;;;;;;;;;;;;;;;11.70;79.34;95333.38;5073496;28;20051;-79
2024/02/08 10:44:18;;;;;;;1.33;0.85;;;;;;;11.67;79.28;95325.94;5073009;28;20376;-79
2024/02/08 10:46:50;;;;;;;1.10;0.40;;;;;;;11.65;79.51;95316.75;5073231;28;20071;-81
2024/02/08 10:49:22;;;;;;;1.98;0.40;;;;;;;11.64;79.60;95309.94;5072240;28;20049;-81
2024/02/08 10:51:59;;;;;;;1.77;0.45;;;;;;;11.65;79.77;95316.75;5071990;28;20053;-80
2024/02/08 10:54:42;;;;;;;1.33;0.70;;;;;;;11.67;80.11;95319.94;5071918;28;20454;-81
2024/02/08 10:57:39;;;;;;;;;;;;;;;11.70;80.47;95311.69;5072662;28;20052;-81
2024/02/08 10:59:59;;;;;;;1.23;0.77;;;;;;;11.72;79.66;95307.03;5071888;28;19924;-80
2024/02/08 11:02:35;;;;;;;0.70;0.50;;;;;;;11.75;79.82;95296.13;5072326;28;20071;-81
2024/02/08 11:05:44;;;;;;;0.68;0.30;;;;;;;11.79;79.79;95297.28;5072060;28;20439;-81
2024/02/08 11:08:23;;;;;;;0.30;0.30;;;;;;;11.79;79.62;95286.84;5071827;28;20048;-79
2024/02/08 11:10:58;;;;;;;1.27;0.30;;;;;;;11.81;79.65;95289.22;5073277;28;20428;-79
2024/02/08 11:13:30;;;;;;;0.30;0.30;;;;;;;11.82;79.57;95291.59;5073055;28;20053;-79
2024/02/08 11:16:06;;;;;;;0.52;0.40;;;;;;;11.83;79.68;95295.81;5072340;28;20424;-79
2024/02/08 11:18:36;;;;;;;0.50;0.43;;;;;;;11.85;80.10;95283.34;5073353;28;20424;-79
2024/02/08 11:21:12;;;;;;;1.42;0.60;;;;;;;11.86;79.85;95271.84;5073434;28;20060;-79
2024/02/08 11:23:45;;;;;;;1.15;1.05;;;;;;;11.87;80.19;95268.25;5072754;28;20049;-79
2024/02/08 11:26:18;;;;;;;1.77;1.05;;;;;;;11.89;79.98;95270.63;5073378;28;20098;-80
2024/02/08 11:28:48;;;;;;;0.85;0.57;;;;;;;11.89;80.04;95265.41;5071883;28;20462;-79
2024/02/08 11:31:17;;;;;;;1.33;0.75;;;;;;;11.91;80.27;95264.16;5073589;28;20044;-79
2024/02/08 11:33:49;;;;;;;1.35;1.15;;;;;;;11.94;80.57;95263.75;5074772;28;20045;-79
2024/02/08 11:36:21;;;;;;;0.55;0.47;;;;;;;11.95;80.01;95251.47;5076701;28;20106;-79
2024/02/08 11:38:57;;;;;;;0.32;0.32;;;;;;;11.95;80.07;95256.69;5076967;28;20049;-79
2024/02/08 11:41:25;;;;;;;0.55;0.35;;;;;;;11.95;79.93;95257.47;5076690;28;20052;-79
2024/02/08 11:44:02;;;;;;;0.52;0.50;;;;;;;11.94;80.24;95252.50;5076235;28;20060;-79
2024/02/08 11:46:37;;;;;;;1.33;0.70;;;;;;;11.93;79.98;95241.22;5077115;28;20052;-80
2024/02/08 11:49:14;;;;;;;0.60;0.60;;;;;;;11.94;80.30;95248.06;5076638;28;20048;-79
2024/02/08 11:51:45;;;;;;;0.90;0.60;;;;;;;11.95;80.19;95241.81;5076642;28;20135;-79
2024/02/08 11:54:27;;;;;;;1.25;0.40;;;;;;;11.94;79.83;95232.38;5075926;28;20117;-79
2024/02/08 11:56:57;;;;;;;0.88;0.55;;;;;;;11.93;79.77;95230.78;5076176;28;20140;-80
2024/02/08 11:59:26;;;;;;;0.32;0.30;;;;;;;11.93;79.58;95230.78;5075463;28;20080;-81
2024/02/08 12:01:54;;;;;;;0.30;0.20;;;;;;;11.93;79.28;95220.31;5075304;28;20049;-81
2024/02/08 12:04:24;;;;;;;0.55;0.20;;;;;;;11.94;79.22;95211.47;5075609;28;20496;-81
2024/02/08 12:07:02;;;;;;;0.40;0.20;;;;;;;11.94;79.21;95211.47;5076374;28;20460;-81
2024/02/08 12:09:31;;;;;;;0.68;0.30;;;;;;;11.98;79.20;95203.19;5075607;28;20044;-81
2024/02/08 12:12:00;;;;;;;0.50;0.45;;;;;;;12.00;79.11;95193.31;5075243;28;20135;-81
2024/02/08 12:14:27;;;;;;;1.00;0.70;;;;;;;12.03;79.12;95195.47;5074726;28;20053;-80
2024/02/08 12:16:58;;;;;;;1.20;0.60;;;;;;;12.03;79.10;95192.88;5074858;28;20498;-81
2024/02/08 12:19:28;;;;;;;1.10;0.70;;;;;;;12.05;78.92;95193.44;5075557;28;20041;-79
2024/02/08 12:21:58;;;;;;;0.60;0.50;;;;;;;12.04;78.55;95187.41;5076539;28;20431;-79
2024/02/08 12:24:26;;;;;;;2.42;0.70;;;;;;;12.05;79.06;95188.22;5090146;28;20136;-78
2024/02/08 12:27:05;;;;;;;1.05;0.75;;;;;;;12.05;79.50;95175.94;5082450;28;20112;-78
2024/02/08 12:29:35;;;;;;;0.80;0.70;;;;;;;12.05;79.44;95178.56;5081250;28;20041;-79
2024/02/08 12:32:05;;;;;;;1.90;0.50;;;;;;;12.06;79.20;95166.28;5075799;28;20063;-79
2024/02/08 12:34:34;;;;;;;1.45;0.73;;;;;;;12.07;79.05;95160.00;5075627;28;20135;-79
2024/02/08 12:37:05;;;;;;;1.75;0.73;;;;;;;12.08;78.75;95172.84;5075210;28;20044;-81
2024/02/08 12:39:38;;;;;;;1.60;0.60;;;;;;;12.08;78.83;95165.03;5074399;28;20041;-81
2024/02/08 12:42:05;;;;;;;4.20;0.60;;;;;;;12.07;78.69;95168.66;5074151;28;20052;-81
2024/02/08 12:44:35;;;;;;;2.30;0.70;;;;;;;12.06;77.77;95147.97;5073841;28;20511;-81
2024/02/08 12:47:06;;;;;;;4.25;1.05;;;;;;;12.05;78.00;95165.47;5073955;28;20044;-81
2024/02/08 12:49:35;;;;;;;2.03;1.00;;;;;;;12.06;78.30;95164.44;5074587;28;20051;-81
2024/02/08 12:52:03;;;;;;;4.88;1.17;;;;;;;12.07;78.54;95157.41;5073956;28;20048;-81
2024/02/08 12:54:32;;;;;;;4.93;1.23;;;;;;;12.07;77.94;95154.78;5073763;28;20052;-81
2024/02/08 12:57:10;;;;;;;5.60;1.38;;;;;;;12.05;78.29;95155.03;5073709;28;20048;-80
2024/02/08 12:59:39;;;;;;;5.10;1.63;;;;;;;12.06;77.42;95150.59;5074251;28;20053;-81
2024/02/08 13:02:09;;;;;;;3.50;0.70;;;;;;;12.03;77.67;95157.06;5073827;28;20508;-81
2024/02/08 13:04:43;;;;;;;3.60;1.42;;;;;;;12.01;77.22;95145.25;5073574;28;20052;-81
2024/02/08 13:07:15;;;;;;;5.43;1.33;;;;;;;12.01;76.75;95137.41;5073944;28;20458;-81
2024/02/08 13:09:44;;;;;;;6.40;1.38;;;;;;;12.02;77.18;95144.22;5073979;28;20044;-81
2024/02/08 13:12:19;;;;;;;4.72;1.80;;;;;;;12.01;77.40;95153.09;5073688;28;20059;-81
2024/02/08 13:15:02;;;;;;;4.38;0.95;;;;;;;12.02;76.36;95157.28;5073878;28;20060;-81
2024/02/08 13:17:33;;;;;;;5.07;1.20;;;;;;;12.00;75.82;95146.25;5073804;28;20053;-81
2024/02/08 13:20:11;;;;;;;4.32;1.95;;;;;;;12.01;76.36;95159.09;5073937;28;20083;-81
2024/02/08 13:22:44;;;;;;;5.53;1.63;;;;;;;12.00;76.08;95147.06;5073322;28;20133;-81
2024/02/08 13:25:13;;;;;;;5.40;1.30;;;;;;;11.99;75.56;95148.09;5073387;28;20135;-81
2024/02/08 13:27:42;;;;;;;4.10;1.55;;;;;;;11.99;75.43;95149.91;5073453;28;20131;-81
2024/02/08 13:30:14;;;;;;;5.43;0.90;;;;;;;11.97;74.75;95147.50;5073619;28;20480;-81
2024/02/08 13:32:43;;;;;;;;;;;;;;;11.97;75.06;95144.91;5074051;28;20151;-81
2024/02/08 13:35:18;;;;;;;3.85;0.90;;;;;;;11.99;75.10;95157.75;5073137;28;19942;-80
2024/02/08 13:37:48;;;;;;;3.83;0.77;;;;;;;11.99;74.80;95152.53;5073907;28;20066;-81
2024/02/08 13:40:17;;;;;;;3.65;1.02;;;;;;;12.00;74.78;95147.06;5073068;28;20464;-81
2024/02/08 13:42:45;;;;;;;4.28;0.70;;;;;;;12.04;75.15;95150.00;5073360;28;20462;-81
2024/02/08 13:45:24;;;;;;;4.65;1.00;;;;;;;12.08;75.70;95149.34;5073285;28;20479;-81
2024/02/08 13:47:55;;;;;;;3.72;1.13;;;;;;;12.13;76.14;95148.66;5073134;28;20053;-81
2024/02/08 13:50:28;;;;;;;4.70;1.53;;;;;;;12.19;75.51;95149.56;5073226;28;20411;-81
2024/02/08 13:52:59;;;;;;;3.67;0.80;;;;;;;12.20;75.20;95141.53;5073574;28;20048;-79
2024/02/08 13:55:31;;;;;;;6.82;1.38;;;;;;;12.23;75.33;95151.50;5073734;28;20048;-79
2024/02/08 13:58:18;;;;;;;8.88;1.50;;;;;;;12.25;75.88;95139.00;5074149;28;20049;-79
2024/02/08 14:00:47;;;;;;;5.80;1.75;;;;;;;12.28;75.33;95142.97;5074071;28;20139;-78
2024/02/08 14:03:17;;;;;;;4.20;1.05;;;;;;;12.31;75.36;95139.91;5073764;28;20051;-79
2024/02/08 14:05:51;;;;;;;9.52;1.55;;;;;;;12.31;73.94;95143.31;5074068;28;20052;-79